Nearby METAR Reports

 

KCMH - Columbus, Ohio, USA
Distance from station: SW 5mi, 8km
Updated: Thu, 21-Nov-2019 11:51am EST
Overcast
Overcast
 Wind from S
Wind: S 14 mph , 22 km/h, Gust: 21 mph , 33 km/h
Temperature: 50°F , 10°C
Wind Chill: 45°F , 7°C
Dew Point: 37°F , 3°C
Humidity: 62%
Barometer: 30.06 inHg , 1017.9 hPa
Clouds: Overcast
Visibility: 10 miles , 16 km
Cloud details: Overcast 12000 ft
2019/11/21 16:51 KCMH 211651Z 19012G18KT 10SM OVC120 10/03 A3006 RMK AO2 SLP182 T01000028
KOSU - Columbus/St Univ, Ohio, USA
Distance from station: W 14mi, 23km
Updated: Thu, 21-Nov-2019 11:53am EST
Mostly cloudy
Mostly cloudy
 Wind from SSE
Wind: SSE 13 mph , 20 km/h
Temperature: 48°F , 9°C
Wind Chill: 43°F , 6°C
Dew Point: 37°F , 3°C
Humidity: 66%
Barometer: 30.03 inHg , 1016.9 hPa
Clouds: Mostly cloudy
Visibility: 10 miles , 16 km
Cloud details: Mostly cloudy 12000 ft
2019/11/21 16:53 KOSU 211653Z 16011KT 10SM BKN120 09/03 A3003 RMK AO2 SLP176 T00890028
 
KLCK - Rickenbacker Ang, Ohio, USA
Distance from station: SSW 17mi, 27km
Updated: Thu, 21-Nov-2019 11:55am EST
Overcast
Overcast
 Wind from S
Wind: S 10 mph , 17 km/h
Temperature: 48°F , 9°C
Wind Chill: 44°F , 7°C
Dew Point: 37°F , 3°C
Humidity: 66%
Barometer: 30.06 inHg , 1017.9 hPa
Clouds: Overcast
Visibility: 10 miles , 16 km
Cloud details: Overcast 12000 ft
2019/11/21 16:55 KLCK 211655Z AUTO 18009KT 10SM OVC120 09/03 A3006 RMK AO2 T00920032
KVTA - Newark, Ohio, USA
Distance from station: E 19mi, 30km
Updated: Thu, 21-Nov-2019 11:54am EST
Overcast
Overcast
 Wind from S
Wind: S 7 mph , 11 km/h
Temperature: 48°F , 9°C
Wind Chill: 45°F , 7°C
Dew Point: 39°F , 4°C
Humidity: 71%
Barometer: 30.07 inHg , 1018.3 hPa
Clouds: Overcast
Visibility: 10 miles , 16 km
Cloud details: Overcast 12000 ft
2019/11/21 16:54 KVTA 211654Z AUTO 18006KT 10SM OVC120 09/04 A3007 RMK AO2 SLP187 T00940039
 
KTZR - Columbus/Bolton, Ohio, USA
Distance from station: WSW 20mi, 31km
Updated: Thu, 21-Nov-2019 11:50am EST
Overcast
Overcast
 Wind from S
Wind: S 9 mph , 15 km/h
Temperature: 46°F , 8°C
Wind Chill: 41°F , 5°C
Dew Point: 39°F , 4°C
Humidity: 76%
Barometer: 30.06 inHg , 1017.9 hPa
Clouds: Overcast
Visibility: 10 miles , 16 km
Cloud details: Overcast 12000 ft
2019/11/21 16:50 KTZR 211650Z 17008KT 10SM OVC120 08/04 A3006
KLHQ - Lancaster, Ohio, USA
Distance from station: SSE 22mi, 36km
Updated: Thu, 21-Nov-2019 11:53am EST
Mostly cloudy
Mostly cloudy
 Wind from SE
Wind: SE 8 mph , 13 km/h
Temperature: 48°F , 9°C
Wind Chill: 44°F , 7°C
Dew Point: 39°F , 4°C
Humidity: 71%
Barometer: 30.07 inHg , 1018.3 hPa
Clouds: Mostly cloudy
Visibility: 10 miles , 16 km
Cloud details: Mostly cloudy 12000 ft
2019/11/21 16:53 KLHQ 211653Z AUTO 14007KT 10SM BKN120 09/04 A3007 RMK AO2 SLP189 T00940039
 
KDLZ - Delaware, Ohio, USA
Distance from station: NW 23mi, 36km
Updated: Thu, 21-Nov-2019 11:56am EST
Overcast
Overcast
 Wind from S
Wind: S 9 mph , 15 km/h
Temperature: 46°F , 8°C
Wind Chill: 41°F , 5°C
Dew Point: 39°F , 4°C
Humidity: 76%
Barometer: 30.02 inHg , 1016.6 hPa
Clouds: Overcast
Visibility: 10 miles , 16 km
Cloud details: Overcast 12000 ft
2019/11/21 16:56 KDLZ 211656Z AUTO 17008KT 10SM OVC120 08/04 A3002 RMK AO2
K4I3 - Mt Vernon/Knox, Ohio, USA
Distance from station: NE 25mi, 40km
Updated: Wed, 20-Nov-2019 9:42am EST
NOT Current
Clear
Clear
 Wind from N
Wind: N 6 mph , 9 km/h
Temperature: 39°F , 4°C
Wind Chill: 35°F , 2°C
Dew Point: 32°F , 0°C
Humidity: 75%
Barometer: 30.19 inHg , 1022.4 hPa
Clouds: Clear
Visibility: 7 miles , 11 km
2019/11/20 14:42 K4I3 201442Z AUTO 35005KT 7SM CLR 04/00 A3019 RMK AO2
 
KMRT - Marysville, Ohio, USA
Distance from station: WNW 30mi, 49km
Updated: Thu, 21-Nov-2019 11:35am EST
Mostly cloudy
Mostly cloudy
 Wind from S
Wind: S 13 mph , 20 km/h
Temperature: 46°F , 8°C
Wind Chill: 40°F , 4°C
Dew Point: 39°F , 4°C
Humidity: 76%
Barometer: 30.04 inHg , 1017.3 hPa
Clouds: Mostly cloudy
Visibility: 10 miles , 16 km
Cloud details: Mostly cloudy 12000 ft
2019/11/21 16:35 KMRT 211635Z AUTO 19011KT 10SM BKN120 08/04 A3004 RMK AO2 T00800040
KMNN - Marion, Ohio, USA
Distance from station: NNW 41mi, 67km
Updated: Thu, 21-Nov-2019 11:53am EST
Overcast
Overcast
 Wind from SSE
Wind: SSE 14 mph , 22 km/h
Temperature: 46°F , 8°C
Wind Chill: 40°F , 4°C
Dew Point: 37°F , 3°C
Humidity: 71%
Barometer: 30.00 inHg , 1015.9 hPa
Clouds: Overcast
Visibility: 9 miles , 14 km
Cloud details: Overcast 11000 ft
2019/11/21 16:53 KMNN 211653Z AUTO 16012KT 9SM OVC110 08/03 A3000 RMK AO2 PRESFR SLP167 T00830033
 
KZZV - Zanesville, Ohio, USA
Distance from station: E 49mi, 79km
Updated: Thu, 21-Nov-2019 11:53am EST
Overcast
Overcast
 Wind from S
Wind: S 10 mph , 17 km/h
Temperature: 45°F , 7°C
Wind Chill: 40°F , 4°C
Dew Point: 36°F , 2°C
Humidity: 71%
Barometer: 30.10 inHg , 1019.3 hPa
Clouds: Overcast
Visibility: 10 miles , 16 km
Cloud details: Overcast 11000 ft
2019/11/21 16:53 KZZV 211653Z AUTO 17009KT 10SM OVC110 07/02 A3010 RMK AO2 SLP200 T00720022